createdAt,value
2023-04-23T00:02:42.660Z,12.55
2023-04-23T00:06:47.262Z,12.47
2023-04-23T00:10:49.756Z,12.44
2023-04-23T00:14:52.225Z,12.42
2023-04-23T00:18:54.315Z,12.37
2023-04-23T00:22:56.393Z,12.37
2023-04-23T00:26:58.464Z,12.37
2023-04-23T00:31:00.602Z,12.33
2023-04-23T00:35:02.708Z,12.29
2023-04-23T00:39:04.842Z,12.24
2023-04-23T00:43:07.373Z,12.23
2023-04-23T00:47:10.266Z,12.25
2023-04-23T00:51:13.592Z,12.33
2023-04-23T00:55:16.201Z,12.33
2023-04-23T00:59:18.442Z,12.30
2023-04-23T01:03:22.056Z,12.26
2023-04-23T01:07:24.524Z,12.23
2023-04-23T01:11:27.088Z,12.22
2023-04-23T01:15:29.116Z,12.17
2023-04-23T01:19:31.987Z,12.13
2023-04-23T01:23:34.058Z,12.10
2023-04-23T01:27:36.462Z,12.00
2023-04-23T01:31:38.628Z,11.96
2023-04-23T01:35:41.293Z,11.90
2023-04-23T01:39:43.379Z,11.87
2023-04-23T01:43:45.978Z,11.85
2023-04-23T01:47:48.369Z,11.84
2023-04-23T01:51:50.521Z,11.77
2023-04-23T01:55:54.925Z,11.68
2023-04-23T02:00:08.108Z,11.69
2023-04-23T02:04:15.245Z,11.70
2023-04-23T02:08:17.558Z,11.71
2023-04-23T02:12:19.604Z,11.72
2023-04-23T02:16:21.721Z,11.70
2023-04-23T02:20:23.909Z,11.67
2023-04-23T02:24:26.021Z,11.64
2023-04-23T02:28:28.243Z,11.58
2023-04-23T02:32:31.103Z,11.53
2023-04-23T02:36:33.325Z,11.51
2023-04-23T02:40:36.158Z,11.49
2023-04-23T02:44:38.174Z,11.48
2023-04-23T02:48:41.483Z,11.52
2023-04-23T02:52:43.743Z,11.54
2023-04-23T02:56:46.382Z,11.55
2023-04-23T03:00:48.823Z,11.62
2023-04-23T03:04:51.728Z,11.62
2023-04-23T03:08:53.773Z,11.64
2023-04-23T03:12:56.492Z,11.65
2023-04-23T03:16:59.944Z,11.64
2023-04-23T03:21:02.510Z,11.59
2023-04-23T03:25:05.163Z,11.56
2023-04-23T03:29:07.599Z,11.53
2023-04-23T03:33:09.914Z,11.53
2023-04-23T03:37:13.326Z,11.46
2023-04-23T03:41:16.384Z,11.41
2023-04-23T03:45:19.098Z,11.38
2023-04-23T03:49:21.677Z,11.34
2023-04-23T03:53:23.704Z,11.30
2023-04-23T03:57:54.583Z,11.23
2023-04-23T04:01:59.747Z,11.21
2023-04-23T04:06:02.494Z,11.17
2023-04-23T04:10:06.300Z,11.14
2023-04-23T04:14:08.381Z,11.06
2023-04-23T04:18:10.631Z,11.03
2023-04-23T04:22:12.752Z,10.99
2023-04-23T04:26:15.339Z,10.83
2023-04-23T04:30:17.456Z,10.64
2023-04-23T04:34:20.241Z,10.55
2023-04-23T04:38:22.376Z,10.45
2023-04-23T04:42:25.461Z,10.42
2023-04-23T04:46:29.100Z,10.51
2023-04-23T04:50:31.390Z,10.61
2023-04-23T04:54:33.441Z,10.67
2023-04-23T04:58:35.656Z,10.73
2023-04-23T05:02:37.876Z,10.74
2023-04-23T05:06:40.082Z,10.79
2023-04-23T05:10:45.888Z,10.86
2023-04-23T05:14:47.939Z,10.95
2023-04-23T05:18:50.093Z,11.04
2023-04-23T05:22:52.242Z,11.00
2023-04-23T05:26:54.962Z,10.98
2023-04-23T05:30:57.361Z,10.98
2023-04-23T05:35:02.885Z,11.07
2023-04-23T05:39:04.893Z,11.18
2023-04-23T05:43:06.941Z,11.42
2023-04-23T05:47:10.927Z,12.05
2023-04-23T05:51:13.446Z,13.19
2023-04-23T05:55:20.439Z,15.67
2023-04-23T05:59:23.150Z,15.28
2023-04-23T06:03:26.668Z,14.43
2023-04-23T06:07:28.839Z,13.83
2023-04-23T06:11:36.056Z,13.41
2023-04-23T06:15:38.406Z,13.16
2023-04-23T06:19:41.512Z,13.09
2023-04-23T06:23:43.559Z,13.09
2023-04-23T06:27:45.687Z,13.09
2023-04-23T06:31:58.973Z,13.12
2023-04-23T06:36:01.082Z,13.35
2023-04-23T06:40:03.434Z,13.60
2023-04-23T06:44:06.107Z,14.74
2023-04-23T06:48:11.400Z,17.13
2023-04-23T06:52:13.494Z,18.10
2023-04-23T06:56:15.549Z,17.03
2023-04-23T07:00:17.909Z,18.69
2023-04-23T07:04:21.656Z,19.46
2023-04-23T07:08:23.744Z,18.45
2023-04-23T07:12:25.791Z,16.97
2023-04-23T07:16:32.066Z,16.01
2023-04-23T07:20:34.296Z,15.51
2023-04-23T07:24:36.347Z,15.17
2023-04-23T07:28:38.391Z,15.05
2023-04-23T07:32:40.629Z,14.92
2023-04-23T07:36:42.777Z,14.92
2023-04-23T07:40:44.948Z,14.87
2023-04-23T07:44:47.016Z,14.83
2023-04-23T07:48:49.205Z,14.83
2023-04-23T07:52:51.965Z,14.84
2023-04-23T07:56:54.004Z,14.94
2023-04-23T08:00:56.058Z,15.08
2023-04-23T08:04:58.172Z,15.35
2023-04-23T08:09:00.551Z,15.35
2023-04-23T08:13:03.162Z,15.28
2023-04-23T08:17:05.266Z,15.20
2023-04-23T08:21:07.631Z,15.15
2023-04-23T08:25:10.056Z,15.10
2023-04-23T08:29:12.145Z,15.13
2023-04-23T08:33:14.641Z,15.12
2023-04-23T08:37:29.676Z,15.19
2023-04-23T08:41:39.597Z,15.23
2023-04-23T08:45:45.870Z,15.21
2023-04-23T08:49:50.677Z,15.36
2023-04-23T08:53:58.168Z,15.49
2023-04-23T08:58:01.408Z,15.52
2023-04-23T09:02:08.322Z,15.46
2023-04-23T09:06:10.952Z,15.45
2023-04-23T09:10:16.908Z,15.31
2023-04-23T09:14:22.552Z,15.10
2023-04-23T09:18:24.804Z,15.23
2023-04-23T09:22:46.752Z,15.27
2023-04-23T09:26:51.831Z,15.35
2023-04-23T09:30:53.872Z,15.51
2023-04-23T09:34:59.139Z,15.62
2023-04-23T09:39:01.171Z,15.90
2023-04-23T09:43:04.649Z,16.16
2023-04-23T09:47:10.070Z,16.49
2023-04-23T09:51:15.112Z,16.57
2023-04-23T09:55:28.333Z,16.42
2023-04-23T10:03:36.256Z,16.81
2023-04-23T10:07:39.832Z,16.89
2023-04-23T10:11:42.768Z,16.81
2023-04-23T10:15:47.275Z,17.00
2023-04-23T10:19:50.679Z,17.16
2023-04-23T10:23:52.894Z,17.36
2023-04-23T10:27:56.271Z,17.51
2023-04-23T10:32:03.885Z,17.50
2023-04-23T10:36:06.781Z,17.57
2023-04-23T10:40:18.782Z,17.67
2023-04-23T10:44:44.944Z,17.85
2023-04-23T10:49:06.949Z,17.99
2023-04-23T10:53:18.573Z,17.95
2023-04-23T10:57:20.861Z,17.90
2023-04-23T11:01:27.953Z,17.64
2023-04-23T11:05:30.008Z,17.37
2023-04-23T11:09:34.835Z,17.18
2023-04-23T11:13:52.749Z,16.91
2023-04-23T11:17:54.818Z,16.73
2023-04-23T11:22:04.413Z,16.60
2023-04-23T11:26:06.534Z,16.39
2023-04-23T11:30:13.756Z,16.28
2023-04-23T11:34:17.389Z,16.34
2023-04-23T11:38:21.460Z,16.47
2023-04-23T11:42:23.477Z,16.71
2023-04-23T11:46:26.065Z,16.87
2023-04-23T11:50:33.516Z,16.98
2023-04-23T11:54:36.034Z,16.92
2023-04-23T11:58:39.412Z,16.73
2023-04-23T12:02:55.804Z,16.63
2023-04-23T12:06:59.051Z,16.61
2023-04-23T12:11:03.127Z,17.03
2023-04-23T12:15:07.156Z,17.59
2023-04-23T12:19:10.667Z,17.78
2023-04-23T12:23:12.700Z,17.71
2023-04-23T12:27:20.359Z,17.47
2023-04-23T12:31:24.620Z,17.17
2023-04-23T12:35:43.581Z,17.30
2023-04-23T12:39:45.891Z,17.64
2023-04-23T12:43:50.221Z,17.95
2023-04-23T12:47:53.728Z,18.02
2023-04-23T12:52:02.682Z,18.15
2023-04-23T12:56:04.950Z,18.17
2023-04-23T13:00:08.892Z,18.17
2023-04-23T13:04:11.145Z,18.21
2023-04-23T13:08:13.292Z,18.14
2023-04-23T13:12:15.368Z,17.99
2023-04-23T13:16:17.821Z,17.97
2023-04-23T13:20:19.931Z,17.86
2023-04-23T13:24:21.997Z,17.91
2023-04-23T13:28:24.052Z,17.66
2023-04-23T13:32:28.326Z,17.47
2023-04-23T13:36:30.503Z,17.41
2023-04-23T13:40:32.635Z,17.35
2023-04-23T13:44:34.646Z,17.17
2023-04-23T13:48:36.704Z,17.07
2023-04-23T13:52:39.797Z,17.14
2023-04-23T13:56:41.884Z,17.19
2023-04-23T14:00:44.051Z,17.19
2023-04-23T14:04:46.068Z,17.12
2023-04-23T14:08:48.127Z,17.18
2023-04-23T14:12:51.366Z,17.44
2023-04-23T14:16:53.377Z,17.66
2023-04-23T14:20:55.446Z,17.83
2023-04-23T14:25:02.392Z,17.93
2023-04-23T14:29:11.220Z,17.96
2023-04-23T14:33:13.276Z,18.02
2023-04-23T14:37:17.191Z,17.94
2023-04-23T14:41:19.219Z,17.74
2023-04-23T14:45:21.474Z,17.55
2023-04-23T14:49:24.384Z,17.70
2023-04-23T14:53:27.157Z,17.87
2023-04-23T14:57:29.260Z,17.91
2023-04-23T15:01:31.462Z,17.91
2023-04-23T15:05:33.545Z,17.85
2023-04-23T15:09:35.591Z,17.78
2023-04-23T15:13:49.270Z,17.73
2023-04-23T15:17:51.891Z,17.73
2023-04-23T15:21:53.974Z,17.67
2023-04-23T15:25:56.136Z,17.57
2023-04-23T15:29:58.148Z,17.45
2023-04-23T15:34:00.278Z,17.40
2023-04-23T15:38:02.367Z,17.36
2023-04-23T15:42:05.689Z,17.30
2023-04-23T15:46:07.809Z,17.29
2023-04-23T15:50:10.768Z,17.23
2023-04-23T15:54:12.992Z,17.26
2023-04-23T15:58:14.993Z,17.27
2023-04-23T16:02:17.938Z,17.25
2023-04-23T16:06:20.038Z,17.10
2023-04-23T16:10:22.131Z,17.01
2023-04-23T16:14:24.205Z,16.96
2023-04-23T16:18:26.289Z,16.90
2023-04-23T16:22:28.334Z,16.82
2023-04-23T16:26:30.586Z,16.74
2023-04-23T16:30:32.696Z,16.64
2023-04-23T16:34:34.693Z,16.53
2023-04-23T16:38:36.714Z,16.42
2023-04-23T16:42:39.171Z,16.28
2023-04-23T16:46:41.388Z,15.95
2023-04-23T16:50:44.263Z,15.34
2023-04-23T16:54:49.196Z,14.86
2023-04-23T16:58:51.472Z,14.51
2023-04-23T17:02:53.641Z,14.16
2023-04-23T17:06:55.701Z,13.88
2023-04-23T17:10:57.734Z,13.63
2023-04-23T17:14:59.734Z,13.48
2023-04-23T17:19:01.891Z,13.45
2023-04-23T17:23:03.987Z,13.38
2023-04-23T17:27:06.310Z,13.40
2023-04-23T17:31:08.869Z,13.40
2023-04-23T17:35:11.220Z,13.43
2023-04-23T17:39:13.336Z,13.51
2023-04-23T17:43:16.435Z,13.40
2023-04-23T17:47:18.472Z,13.39
2023-04-23T17:51:21.479Z,13.35
2023-04-23T17:55:24.187Z,13.36
2023-04-23T17:59:26.220Z,13.33
2023-04-23T18:03:30.064Z,13.29
2023-04-23T18:07:32.251Z,13.12
2023-04-23T18:11:34.324Z,12.97
2023-04-23T18:15:36.372Z,12.88
2023-04-23T18:19:38.479Z,12.72
2023-04-23T18:23:40.610Z,12.62
2023-04-23T18:27:42.667Z,12.50
2023-04-23T18:31:44.709Z,12.44
2023-04-23T18:35:52.395Z,12.37
2023-04-23T18:39:54.526Z,12.35
2023-04-23T18:43:57.101Z,12.24
2023-04-23T18:48:27.937Z,12.00
2023-04-23T18:52:29.925Z,11.86
2023-04-23T18:56:32.043Z,11.96
2023-04-23T19:00:34.504Z,11.91
2023-04-23T19:04:36.723Z,11.77
2023-04-23T19:08:38.994Z,11.69
2023-04-23T19:12:40.975Z,11.61
2023-04-23T19:16:42.994Z,11.55
2023-04-23T19:20:45.040Z,11.54
2023-04-23T19:24:47.286Z,11.50
2023-04-23T19:28:49.316Z,11.49
2023-04-23T19:32:51.405Z,11.46
2023-04-23T19:36:53.661Z,11.48
2023-04-23T19:40:56.844Z,11.45
2023-04-23T19:44:58.857Z,11.38
2023-04-23T19:49:00.911Z,11.31
2023-04-23T19:53:05.663Z,11.37
2023-04-23T19:57:07.725Z,11.46
2023-04-23T20:01:10.628Z,11.39
2023-04-23T20:05:12.688Z,11.36
2023-04-23T20:09:21.856Z,11.31
2023-04-23T20:13:23.992Z,11.25
2023-04-23T20:17:26.981Z,11.21
2023-04-23T20:21:29.042Z,11.24
2023-04-23T20:25:31.961Z,11.42
2023-04-23T20:29:34.065Z,11.48
2023-04-23T20:33:36.059Z,11.46
2023-04-23T20:37:38.553Z,11.42
2023-04-23T20:41:40.942Z,11.38
2023-04-23T20:45:43.154Z,11.31
2023-04-23T20:49:45.510Z,11.32
2023-04-23T20:53:47.917Z,11.34
2023-04-23T20:57:50.183Z,11.35
2023-04-23T21:01:52.687Z,11.35
2023-04-23T21:05:54.780Z,11.36
2023-04-23T21:09:57.019Z,11.36
2023-04-23T21:14:00.902Z,11.33
2023-04-23T21:18:04.069Z,11.31
2023-04-23T21:22:06.143Z,11.27
2023-04-23T21:26:08.286Z,11.17
2023-04-23T21:30:23.653Z,11.13
2023-04-23T21:34:25.774Z,11.05
2023-04-23T21:38:27.769Z,11.02
2023-04-23T21:42:29.835Z,11.06
2023-04-23T21:46:32.189Z,11.00
2023-04-23T21:50:34.417Z,10.94
2023-04-23T21:54:36.468Z,10.88
2023-04-23T21:58:38.468Z,10.85
2023-04-23T22:02:42.107Z,10.86
2023-04-23T22:06:46.450Z,10.87
2023-04-23T22:10:48.747Z,10.86
2023-04-23T22:14:50.912Z,10.86
2023-04-23T22:18:53.553Z,10.88
2023-04-23T22:22:56.112Z,10.89
2023-04-23T22:26:58.998Z,10.89
2023-04-23T22:31:01.390Z,10.91
2023-04-23T22:35:04.626Z,10.95
2023-04-23T22:39:07.008Z,10.91
2023-04-23T22:43:09.025Z,10.87
2023-04-23T22:47:11.913Z,10.82
2023-04-23T22:51:14.430Z,10.80
2023-04-23T22:55:16.446Z,10.80
2023-04-23T22:59:19.105Z,10.73
2023-04-23T23:03:21.603Z,10.64
2023-04-23T23:07:23.738Z,10.56
2023-04-23T23:11:28.641Z,10.48
2023-04-23T23:15:30.749Z,10.39
2023-04-23T23:19:32.773Z,10.28
2023-04-23T23:23:34.930Z,10.18
2023-04-23T23:27:37.111Z,10.10
2023-04-23T23:31:39.164Z,10.02
2023-04-23T23:35:42.612Z,9.94
2023-04-23T23:39:45.663Z,9.92
2023-04-23T23:43:47.620Z,9.87
2023-04-23T23:47:49.646Z,9.82
2023-04-23T23:51:51.745Z,9.80
2023-04-23T23:55:53.729Z,9.81
2023-04-23T23:59:56.145Z,9.79
